Matewan, West Virginia
Current Conditions -  °F | °C
As of 4:35 AM on Thursday 27 Nov 2014 (Local Time) from KPBX Reporting Station
Overcast Overcast  
Wind Chill: 28°   Ceiling: 400
Heat Index: 34°   Visibility: 10mi
Dew Point: 32°   Wind: 7mph
Humidity: 92%   Direction: 330°NNW
Pressure: 29.99"   Gusts: NA
Location:  37.62°N, 82.16°W
Report Text: KPBX 270935Z AUTO 33006KT 10SM OVC004 01/00 A2999 RMK AO2 T00120001
Loading
Personal Weather Stations






























Interactive Weather Map New forecast layout! Learn more

10-Day Weather Forecast

Advertisements
Track Severe Weather on mobile